Saint Médard d'Aunis (17)                   Octobre 2019                              
  Température (°C) - Abri Young à ventilation mécanique 43502 Humidité Vent (km/h) PeetBros Précipitations (mm) Pression (hPa) Divers  
Date Maxi Mini Moy de 1440 relevés Moy (tx+tn)/2 Index chaleur moyen Index chaleur maxi Froid dû au vent moy  Froid dû au vent mini/1min   Amplitude (Tx-Tn) Tx OMM/1min Tn OMM/1min Tm OMM/1min Relative maxi Relative mini Relative moy de 1440 relevés Relative moy (hx+hn)/2 Point de rosée maxi Point de rosée mini Point de rosée moy 1440 relevés Vent moy maxi (10min) Vent  moyen (24h) Direction dominante Rafales (km/h) maxi Direction rafale maxi Rafales moy (24h) Rafales (km/h)   maxi Total du jour (mm) Durée en heures et dixièmes Intensité maxi sur 1 min (mm/h) Maxi Mini Moy de 1440 relevés Moy (px+pn)/2 Variation Epaisseur neige (cm) Remarques diverses    
01/10/2019 21,3 15,2 17,56 18,25 18,00 21,9 15,45 11,6 6,1 21,2 15,2 18,20 95% 78% 89,7% 86,5% 18,4 13,6 15,83 42,33 22,85 WSW 59,5 W 28,92 60,9 3,2 1,1 24,0 1012,8 1008,6 1009,87 1010,70 4,2   Ciel entre 4/8 et 8/8, averses  
02/10/2019 18,3 11,6 15,68 14,95 15,74 18,4 15,21 11,0 6,7 18,2 11,7 14,95 95% 69% 83,5% 82,0% 14,2 10,1 12,84 20,90 10,24 NNW 27,4 W 13,57 27,2 0,2 0,1 12,0 1022,2 1011,0 1017,19 1016,60 11,2   Ciel entre 4/8 et 7/8 le matin, 6/8 l'après-midi, 0/8 le soir  
03/10/2019 19,9 9,1 14,32 14,50 14,39 19,7 14,04 8,7 10,8 19,8 9,1 14,45 96% 58% 83,1% 77,0% 15,7 7,9 11,33 18,66 7,55 SSW 33,8 SW 10,74 34,8 3,0 1,2 12,0 1021,9 1015,0 1019,06 1018,45 6,9   Ciel 0/8 à 8/8 le matin, 4/8 à 2/8 l'après-midi, 8/8 le soir avec pluie  
04/10/2019 19,3 12,5 15,87 15,90 15,99 19,4 14,36 11,5 6,8 19,3 12,5 15,90 97% 66% 86,8% 81,5% 16,7 11,7 13,60 27,19 15,91 W 40,2 WNW 20,11 43,9 1,8 0,7 12,0 1017,2 1014,1 1016,03 1015,65 3,1   Ciel entre 6/8 et 8/8 le matin, pluie, 7/8 à 2/8 l'après-midi  
05/10/2019 19,4 11,2 15,17 15,30 15,34 19,6 14,68 10,7 8,2 19,3 11,3 15,30 97% 70% 88,1% 83,5% 15,3 10,7 13,11 20,90 8,98 W 30,6 W 11,11 30,4 0,4 0,2 12,0 1019,3 1016,8 1018,06 1018,05 2,5   Ciel entre 0/8 et 8/8 le matin, faible averse, entre 4/8 et 6/8 ensuite  
06/10/2019 18,6 13,0 15,49 15,80 15,54 18,7 13,83 11,0 5,6 18,6 13,0 15,80 97% 63% 85,1% 80,0% 15,4 10,5 12,90 30,11 16,63 WNW 45,1 WNW 21,22 45,8 4,6 1,2 12,0 1021,6 1016,5 1018,89 1019,05 5,1   Ciel entre 4/8 et 8/8, averses  
07/10/2019 17,6 10,1 14,20 13,85 14,28 17,7 13,89 9,7 7,5 17,5 10,1 13,80 96% 70% 87,3% 83,0% 15,1 9,3 12,07 21,70 6,89 S 32,2 S 9,47 31,9 0,6 0,3 12,0 1023,0 1018,4 1021,00 1020,70 4,6   Ciel 3/8 à 8/8 le matin, faible pluie, 8/8 à 6/8 l'après-midi, 8/8 le soir  
08/10/2019 19,0 10,4 15,35 14,70 15,66 19,8 14,22 9,6 8,6 19,0 10,4 14,70 97% 90% 94,4% 93,5% 18,2 10,0 14,45 24,45 13,44 SSW 37,0 SW 17,85 38,0 4,4 1,8 12,0 1018,6 1014,0 1016,49 1016,30 4,6   Ciel 8/8, pluie, 6/8 le soir  
09/10/2019 18,6 11,4 14,66 15,00 14,71 18,7 12,28 9,2 7,2 18,5 11,4 14,95 97% 69% 86,3% 83,0% 14,3 10,8 12,33 39,41 20,87 W 59,5 W 25,27 61,4 9,4 1,4 36,0 1019,9 1015,8 1018,01 1017,85 4,1   Ciel entre 3/8 et 8/8, averses  
10/10/2019 19,7 12,6 15,51 16,15 15,72 20,3 14,44 9,9 7,1 19,6 12,6 16,10 97% 80% 90,7% 88,5% 16,6 11,6 13,97 29,64 12,19 WSW 38,6 W 15,39 39,7 1,6 0,7 12,0 1022,4 1019,6 1021,14 1021,00 2,8   Ciel entre 3/8 et 8/8, averses  
11/10/2019 23,0 10,5 15,39 16,75 15,53 23,2 14,80 8,8 12,5 23,0 10,6 16,80 97% 55% 85,9% 76,0% 15,9 10,1 12,75 22,02 9,23 SSE 30,6 S 12,61 30,9 0,4 0,2 12,0 1020,6 1014,1 1016,65 1017,35 6,5   Ciel entre 0/8 et 3/8 le matin, 1/8 à 0/8 l'après-midi  
12/10/2019 22,5 12,6 16,76 17,55 17,17 23,2 16,45 12,4 9,9 22,4 12,7 17,55 98% 78% 91,5% 88,0% 18,8 12,2 15,30 21,86 7,54 ESE 35,4 S 10,43 35,5 0,2 0,1 12,0 1014,4 1009,3 1011,79 1011,85 5,1   Ciel entre 0/8 et 5/8 le matin, 4/8 à 7/8 ensuite, tonnerre, traces de précip.  
13/10/2019 24,0 12,7 18,45 18,35 18,88 25,0 17,15 12,5 11,3 23,9 12,7 18,30 96% 68% 85,0% 82,0% 18,8 12,1 15,78 30,92 15,28 SSE 51,5 S 20,50 55,0 0,0 0,0 0,0 1012,2 1006,2 1009,51 1009,20 6,0   Ciel 0/8 à 4/8 le matin, entre 4/8 et 8/8 l'après-midi  
14/10/2019 23,7 13,3 16,82 18,50 17,14 24,5 15,36 11,7 10,4 23,7 13,3 18,50 96% 65% 88,5% 80,5% 17,6 12,5 14,84 40,73 16,52 SSE 67,6 S 22,10 62,7 6,8 1,3 36,0 1008,9 1003,6 1006,39 1006,25 5,3   Ciel entre 3/8 et 8/8, averses, pluie, orage  
15/10/2019 17,3 10,3 13,98 13,80 14,01 17,1 12,68 7,6 7,0 17,3 10,4 13,85 97% 67% 88,0% 82,0% 13,5 9,7 11,96 35,72 13,03 WSW 49,9 WSW 16,95 50,5 11,6 2,8 36,0 1014,9 1008,1 1012,30 1011,50 6,8   Ciel entre 2/8 et 8/8, averses  
16/10/2019 16,4 12,9 14,72 14,65 14,89 16,8 12,37 9,4 3,5 16,4 12,9 14,65 97% 90% 94,2% 93,5% 15,9 11,7 13,79 33,32 19,31 S 53,1 SSE 26,18 49,4 14,2 4,1 24,0 1014,2 1010,7 1012,00 1012,45 3,5   Ciel 3/8 à 8/8, averses, pluie  
17/10/2019 20,1 14,0 15,94 17,05 16,22 20,7 15,19 12,1 6,1 19,9 14,1 17,00 97% 80% 92,5% 88,5% 17,2 13,1 14,69 24,13 11,59 SW 45,1 WSW 15,85 48,1 10,2 2,4 24,0 1012,7 1010,2 1011,84 1011,45 2,5   Ciel entre 6/8 et 8/8, pluie, averses  
18/10/2019 18,2 12,6 14,92 15,40 14,99 18,5 13,45 9,3 5,6 18,2 12,6 15,40 96% 72% 87,1% 84,0% 14,5 11,0 12,74 32,36 15,19 SW 51,5 WNW 20,44 52,1 15,4 2,6 72,0 1013,8 1007,9 1011,54 1010,85 5,9   Ciel entre 6/8 et 8/8, pluie, averses, tonnerre le soir  
19/10/2019 16,7 12,1 13,88 14,40 13,99 16,8 13,32 10,2 4,6 16,7 12,2 14,45 97% 78% 93,0% 87,5% 14,5 11,3 12,74 23,78 7,92 W 32,2 WSW 10,63 32,3 18,4 6,8 12,0 1007,9 1004,3 1005,81 1006,10 3,6   Ciel entre 7/8 et 8/8, pluie  
20/10/2019 14,0 8,8 11,76 11,40 11,88 13,9 9,98 7,9 5,2 13,9 8,8 11,35 97% 84% 92,9% 90,5% 11,8 8,4 10,63 24,60 13,56 N 38,6 NW 17,91 38,5 15,0 5,5 12,0 1013,8 1003,1 1006,97 1008,45 10,7   Ciel 8/8, pluie, 6/8 le soir  
                                                                           
                                                                           
                                                                           
                                                                           
                                                                           
                                                                           
                                                                           
                                                                           
                                                                           
                                                                           
                                                                           
  Température (°C) - Abri Young à ventilation mécanique 43502 Humidité Vent (km/h) PeetBros Précipitations (mm) Pression (hPa) Divers  
  Maxi Mini Moy de 1440 relevés Moy (tx+tn)/2 Index chaleur moyen Index chaleur maxi Froid dû au vent moy  Froid dû au vent mini/1min   Amplitude (Tx-Tn) Tx OMM/1min Tn OMM/1min Tm OMM/1min Relative maxi Relative mini Relative moy de 1440 relevés Relative moy (hx+hn)/2 Point de rosée maxi Point de rosée mini Point de rosée moy 1440 relevés Vent moy maxi (10min) Vent  moyen (24h) Direction dominante Rafales (km/h) maxi Direction rafale maxi Rafales moy (24h) Rafales (km/h)   maxi Total du jour (mm) Durée en heures et dixièmes Intensité maxi sur 1 min (mm/h) Maxi Mini Moy de 1440 relevés Moy (px+pn)/2 Variation Epaisseur neige (cm) Remarques diverses  
Maxi 24,0 15,2 18,45 18,50 18,88 25,0 17,15 12,5 12,5 23,9 15,2 18,50 98% 90% 94,4% 93,5% 18,8 13,6 15,83 42,33 22,85 W 67,6 S 28,92 62,7 18,4 6,8 72,0 1023,0 1019,6 1021,14 1021,00 11,2 0,0    
Mini 14,0 8,8 11,76 11,40 11,88 13,9 9,98 7,6 3,5 13,9 8,8 11,35 95% 55% 83,1% 76,0% 11,8 7,9 10,63 18,66 6,89   27,4   9,47 27,2       1007,9 1003,1 1005,81 1006,10 2,5      
Moy 19,38 11,85 15,32 15,61 15,50 19,70 14,16 10,24 7,54 19,32 11,88 15,60 96,6% 72,5% 88,7% 84,6% 15,92 10,92 13,38 28,24 13,24   42,97   17,36 43,45       1016,62 1011,37 1014,03 1013,99 5,25      
Total                                                     121,4 34,1             0,0    
   
  Observations        
Jours Rafales >= 36,0 km/h Rafales >= 57,6 km/h Rafales >= 75,6 km/h Rafales >= 100,8 km/h Précipi. >= 0,1 mm Précipi. >= 1,0 mm Précipi. >= 5,0 mm Précipi. >= 10,0 mm Tx <= 0 Tx <= -5 Tx <= -10 Tx >= 25 Tx >= 30 Tx >= 35 Tx >= 40 Tn <= 0 Tn <= -5 Tn <= -10 Tn <= -15 Tn <= -20 T moy <= 0 T moy <=     -5 T moy <=     -10 T moy >= 20 T moy >= 25 T moy >= 30 Grêle Grésil Brouillard Brume Orage Neige        
01/10/2019 1 1 0 0 1 1 0 0 0 0 0 0 0 0 0 0 0 0 0 0 0 0 0 0 0 0 0 0 0 0 0 0    
02/10/2019 0 0 0 0 1 0 0 0 0 0 0 0 0 0 0 0 0 0 0 0 0 0 0 0 0 0 0 0 0 0 0 0    
03/10/2019 0 0 0 0 1 1 0 0 0 0 0 0 0 0 0 0 0 0 0 0 0 0 0 0 0 0 0 0 0 0 0 0    
04/10/2019 1 0 0 0 1 1 0 0 0 0 0 0 0 0 0 0 0 0 0 0 0 0 0 0 0 0 0 0 0 0 0 0    
05/10/2019 0 0 0 0 1 0 0 0 0 0 0 0 0 0 0 0 0 0 0 0 0 0 0 0 0 0 0 0 0 0 0 0    
06/10/2019 1 0 0 0 1 1 0 0 0 0 0 0 0 0 0 0 0 0 0 0 0 0 0 0 0 0 0 0 0 0 0 0    
07/10/2019 0 0 0 0 1 0 0 0 0 0 0 0 0 0 0 0 0 0 0 0 0 0 0 0 0 0 0 0 0 0 0 0    
08/10/2019 1 0 0 0 1 1 0 0 0 0 0 0 0 0 0 0 0 0 0 0 0 0 0 0 0 0 0 0 0 0 0 0    
09/10/2019 1 1 0 0 1 1 1 0 0 0 0 0 0 0 0 0 0 0 0 0 0 0 0 0 0 0 0 0 0 0 0 0    
10/10/2019 1 0 0 0 1 1 0 0 0 0 0 0 0 0 0 0 0 0 0 0 0 0 0 0 0 0 0 0 0 0 0 0    
11/10/2019 0 0 0 0 1 0 0 0 0 0 0 0 0 0 0 0 0 0 0 0 0 0 0 0 0 0 0 0 0 0 0 0    
12/10/2019 0 0 0 0 1 0 0 0 0 0 0 0 0 0 0 0 0 0 0 0 0 0 0 0 0 0 0 0 0 0 0 0    
13/10/2019 1 0 0 0 0 0 0 0 0 0 0 0 0 0 0 0 0 0 0 0 0 0 0 0 0 0 0 0 0 0 0 0    
14/10/2019 1 1 0 0 1 1 1 0 0 0 0 0 0 0 0 0 0 0 0 0 0 0 0 0 0 0 0 0 0 0 1 0    
15/10/2019 1 0 0 0 1 1 1 1 0 0 0 0 0 0 0 0 0 0 0 0 0 0 0 0 0 0 0 0 0 0 0 0    
16/10/2019 1 0 0 0 1 1 1 1 0 0 0 0 0 0 0 0 0 0 0 0 0 0 0 0 0 0 0 0 0 0 0 0    
17/10/2019 1 0 0 0 1 1 1 1 0 0 0 0 0 0 0 0 0 0 0 0 0 0 0 0 0 0 0 0 0 0 0 0    
18/10/2019 1 0 0 0 1 1 1 1 0 0 0 0 0 0 0 0 0 0 0 0 0 0 0 0 0 0 0 0 0 0 1 0    
19/10/2019 0 0 0 0 1 1 1 1 0 0 0 0 0 0 0 0 0 0 0 0 0 0 0 0 0 0 0 0 0 0 0 0    
20/10/2019 1 0 0 0 1 1 1 1 0 0 0 0 0 0 0 0 0 0 0 0 0 0 0 0 0 0 0 0 0 0 0 0    
                                                                     
                                                                     
                                                                     
                                                                     
                                                                     
                                                                     
                                                                     
                                                                     
                                                                         
                                                                     
                                                                     
   
  Rafales >= 36,0 km/h Rafales >= 57,6 km/h Rafales >= 75,6 km/h Rafales >= 100,8 km/h Précipi. >= 0,1 mm Précipi. >= 1,0 mm Précipi. >= 5,0 mm Précipi. >= 10,0 mm Tx <=0 Tx <= -5 Tx <= -10 Tx >= 25 Tx >= 30 Tx >= 35 Tx >= 40 Tn <= 0 Tn <= -5 Tn <= -10 Tn <= -15 Tn <= -20 T moy <= 0 T moy <=  -5 T moy <=  -10 T moy >= 20 T moy >= 25 T moy >= 30 Grêle Grésil Brouillard Brume Orage Neige        
Total 13 3 0 0 19 14 8 6 0 0 0 0 0 0 0 0 0 0 0 0 0 0 0 0 0 0 0 0 0 0 2 0